sensor_id;sensor_type;location;lat;lon;timestamp;P1;durP1;ratioP1;P2;durP2;ratioP2
16813;SDS011;8524;57.650;11.926;2023-01-13T00:00:00;4.10;;;3.43;;
16813;SDS011;8524;57.650;11.926;2023-01-13T00:02:28;3.70;;;3.10;;
16813;SDS011;8524;57.650;11.926;2023-01-13T00:04:55;3.63;;;3.10;;
16813;SDS011;8524;57.650;11.926;2023-01-13T00:07:22;3.73;;;3.17;;
16813;SDS011;8524;57.650;11.926;2023-01-13T00:09:49;3.23;;;2.90;;
16813;SDS011;8524;57.650;11.926;2023-01-13T00:12:17;3.53;;;2.80;;
16813;SDS011;8524;57.650;11.926;2023-01-13T00:14:44;3.00;;;2.70;;
16813;SDS011;8524;57.650;11.926;2023-01-13T00:17:11;3.60;;;2.90;;
16813;SDS011;8524;57.650;11.926;2023-01-13T00:19:38;2.70;;;2.50;;
16813;SDS011;8524;57.650;11.926;2023-01-13T00:22:05;3.13;;;2.43;;
16813;SDS011;8524;57.650;11.926;2023-01-13T00:24:32;2.93;;;2.63;;
16813;SDS011;8524;57.650;11.926;2023-01-13T00:26:59;2.50;;;2.30;;
16813;SDS011;8524;57.650;11.926;2023-01-13T00:29:28;3.07;;;2.40;;
16813;SDS011;8524;57.650;11.926;2023-01-13T00:31:55;3.50;;;2.87;;
16813;SDS011;8524;57.650;11.926;2023-01-13T00:34:22;3.20;;;2.90;;
16813;SDS011;8524;57.650;11.926;2023-01-13T00:36:49;2.97;;;2.67;;
16813;SDS011;8524;57.650;11.926;2023-01-13T00:39:16;2.67;;;2.47;;
16813;SDS011;8524;57.650;11.926;2023-01-13T00:41:43;2.10;;;1.90;;
16813;SDS011;8524;57.650;11.926;2023-01-13T00:44:29;2.90;;;2.10;;
16813;SDS011;8524;57.650;11.926;2023-01-13T00:46:56;2.50;;;2.30;;
16813;SDS011;8524;57.650;11.926;2023-01-13T00:49:23;2.83;;;2.30;;
16813;SDS011;8524;57.650;11.926;2023-01-13T00:51:50;2.10;;;1.90;;
16813;SDS011;8524;57.650;11.926;2023-01-13T00:54:17;2.47;;;2.27;;
16813;SDS011;8524;57.650;11.926;2023-01-13T00:56:44;2.53;;;1.93;;
16813;SDS011;8524;57.650;11.926;2023-01-13T00:59:11;2.47;;;2.20;;
16813;SDS011;8524;57.650;11.926;2023-01-13T01:01:40;2.00;;;1.80;;
16813;SDS011;8524;57.650;11.926;2023-01-13T01:04:07;1.70;;;1.60;;
16813;SDS011;8524;57.650;11.926;2023-01-13T01:06:35;2.03;;;1.77;;
16813;SDS011;8524;57.650;11.926;2023-01-13T01:09:02;1.70;;;1.60;;
16813;SDS011;8524;57.650;11.926;2023-01-13T01:11:30;1.90;;;1.70;;
16813;SDS011;8524;57.650;11.926;2023-01-13T01:13:59;1.50;;;1.40;;
16813;SDS011;8524;57.650;11.926;2023-01-13T01:16:27;1.77;;;1.60;;
16813;SDS011;8524;57.650;11.926;2023-01-13T01:18:57;2.37;;;1.40;;
16813;SDS011;8524;57.650;11.926;2023-01-13T01:21:24;2.10;;;1.90;;
16813;SDS011;8524;57.650;11.926;2023-01-13T01:23:53;1.70;;;1.60;;
16813;SDS011;8524;57.650;11.926;2023-01-13T01:26:21;1.50;;;1.27;;
16813;SDS011;8524;57.650;11.926;2023-01-13T01:28:49;1.47;;;1.37;;
16813;SDS011;8524;57.650;11.926;2023-01-13T01:31:17;1.27;;;1.17;;
16813;SDS011;8524;57.650;11.926;2023-01-13T01:33:47;1.30;;;1.13;;
16813;SDS011;8524;57.650;11.926;2023-01-13T01:36:16;1.27;;;1.10;;
16813;SDS011;8524;57.650;11.926;2023-01-13T01:38:45;1.20;;;1.10;;
16813;SDS011;8524;57.650;11.926;2023-01-13T01:41:14;1.00;;;0.90;;
16813;SDS011;8524;57.650;11.926;2023-01-13T01:43:44;1.00;;;0.90;;
16813;SDS011;8524;57.650;11.926;2023-01-13T01:46:26;1.03;;;0.90;;
16813;SDS011;8524;57.650;11.926;2023-01-13T01:48:56;1.10;;;1.00;;
16813;SDS011;8524;57.650;11.926;2023-01-13T01:51:27;0.93;;;0.90;;
16813;SDS011;8524;57.650;11.926;2023-01-13T01:53:59;0.80;;;0.80;;
16813;SDS011;8524;57.650;11.926;2023-01-13T01:56:29;0.97;;;0.97;;
16813;SDS011;8524;57.650;11.926;2023-01-13T01:58:58;0.90;;;0.90;;
16813;SDS011;8524;57.650;11.926;2023-01-13T02:01:25;0.77;;;0.77;;
16813;SDS011;8524;57.650;11.926;2023-01-13T02:03:53;0.83;;;0.83;;
16813;SDS011;8524;57.650;11.926;2023-01-13T02:06:28;0.93;;;0.93;;
16813;SDS011;8524;57.650;11.926;2023-01-13T02:08:56;1.10;;;1.10;;
16813;SDS011;8524;57.650;11.926;2023-01-13T02:11:28;1.10;;;1.00;;
16813;SDS011;8524;57.650;11.926;2023-01-13T02:14:14;1.30;;;1.20;;
16813;SDS011;8524;57.650;11.926;2023-01-13T02:16:43;1.67;;;1.40;;
16813;SDS011;8524;57.650;11.926;2023-01-13T02:19:22;1.40;;;1.30;;
16813;SDS011;8524;57.650;11.926;2023-01-13T02:22:26;1.67;;;1.53;;
16813;SDS011;8524;57.650;11.926;2023-01-13T02:25:32;2.10;;;1.90;;
16813;SDS011;8524;57.650;11.926;2023-01-13T02:28:24;2.10;;;1.90;;
16813;SDS011;8524;57.650;11.926;2023-01-13T02:31:34;2.80;;;2.37;;
16813;SDS011;8524;57.650;11.926;2023-01-13T02:34:08;2.93;;;2.50;;
16813;SDS011;8524;57.650;11.926;2023-01-13T02:36:42;3.40;;;2.80;;
16813;SDS011;8524;57.650;11.926;2023-01-13T02:39:18;3.57;;;2.70;;
16813;SDS011;8524;57.650;11.926;2023-01-13T02:41:51;3.07;;;2.80;;
16813;SDS011;8524;57.650;11.926;2023-01-13T02:44:41;4.73;;;3.20;;
16813;SDS011;8524;57.650;11.926;2023-01-13T02:47:15;6.67;;;3.60;;
16813;SDS011;8524;57.650;11.926;2023-01-13T02:49:45;5.07;;;3.13;;
16813;SDS011;8524;57.650;11.926;2023-01-13T02:52:16;4.90;;;3.33;;
16813;SDS011;8524;57.650;11.926;2023-01-13T02:54:50;4.70;;;3.03;;
16813;SDS011;8524;57.650;11.926;2023-01-13T02:57:20;7.60;;;3.43;;
16813;SDS011;8524;57.650;11.926;2023-01-13T02:59:49;6.50;;;3.33;;
16813;SDS011;8524;57.650;11.926;2023-01-13T03:02:20;6.67;;;2.80;;
16813;SDS011;8524;57.650;11.926;2023-01-13T03:04:51;9.43;;;3.60;;
16813;SDS011;8524;57.650;11.926;2023-01-13T03:13:24;8.13;;;3.47;;
16813;SDS011;8524;57.650;11.926;2023-01-13T03:16:07;8.13;;;3.57;;
16813;SDS011;8524;57.650;11.926;2023-01-13T03:18:44;9.40;;;3.67;;
16813;SDS011;8524;57.650;11.926;2023-01-13T03:21:18;10.17;;;3.53;;
16813;SDS011;8524;57.650;11.926;2023-01-13T03:23:49;7.67;;;3.20;;
16813;SDS011;8524;57.650;11.926;2023-01-13T03:26:22;9.83;;;3.47;;
16813;SDS011;8524;57.650;11.926;2023-01-13T03:28:55;6.40;;;2.60;;
16813;SDS011;8524;57.650;11.926;2023-01-13T03:31:28;8.13;;;2.90;;
16813;SDS011;8524;57.650;11.926;2023-01-13T03:34:02;8.97;;;3.20;;
16813;SDS011;8524;57.650;11.926;2023-01-13T03:36:33;7.17;;;2.80;;
16813;SDS011;8524;57.650;11.926;2023-01-13T03:39:05;13.60;;;4.03;;
16813;SDS011;8524;57.650;11.926;2023-01-13T03:41:37;9.30;;;3.50;;
16813;SDS011;8524;57.650;11.926;2023-01-13T03:44:09;7.43;;;3.07;;
16813;SDS011;8524;57.650;11.926;2023-01-13T03:46:52;8.47;;;3.00;;
16813;SDS011;8524;57.650;11.926;2023-01-13T03:49:28;17.37;;;4.10;;
16813;SDS011;8524;57.650;11.926;2023-01-13T03:52:00;13.30;;;4.20;;
16813;SDS011;8524;57.650;11.926;2023-01-13T03:54:31;13.03;;;3.30;;
16813;SDS011;8524;57.650;11.926;2023-01-13T03:57:06;11.20;;;3.40;;
16813;SDS011;8524;57.650;11.926;2023-01-13T03:59:39;9.23;;;3.13;;
16813;SDS011;8524;57.650;11.926;2023-01-13T04:02:09;10.97;;;3.30;;
16813;SDS011;8524;57.650;11.926;2023-01-13T04:04:43;12.67;;;3.63;;
16813;SDS011;8524;57.650;11.926;2023-01-13T04:07:17;12.73;;;3.57;;
16813;SDS011;8524;57.650;11.926;2023-01-13T04:09:53;14.90;;;3.80;;
16813;SDS011;8524;57.650;11.926;2023-01-13T04:12:23;14.13;;;3.77;;
16813;SDS011;8524;57.650;11.926;2023-01-13T04:15:13;13.03;;;3.53;;
16813;SDS011;8524;57.650;11.926;2023-01-13T04:17:41;14.20;;;3.60;;
16813;SDS011;8524;57.650;11.926;2023-01-13T04:20:10;11.80;;;2.93;;
16813;SDS011;8524;57.650;11.926;2023-01-13T04:22:37;15.53;;;4.07;;
16813;SDS011;8524;57.650;11.926;2023-01-13T04:25:05;11.77;;;3.57;;
16813;SDS011;8524;57.650;11.926;2023-01-13T04:27:33;12.83;;;3.43;;
16813;SDS011;8524;57.650;11.926;2023-01-13T04:30:00;14.77;;;4.53;;
16813;SDS011;8524;57.650;11.926;2023-01-13T04:32:27;17.10;;;3.50;;
16813;SDS011;8524;57.650;11.926;2023-01-13T04:34:54;15.30;;;3.67;;
16813;SDS011;8524;57.650;11.926;2023-01-13T04:37:22;16.50;;;4.10;;
16813;SDS011;8524;57.650;11.926;2023-01-13T04:39:49;16.97;;;4.17;;
16813;SDS011;8524;57.650;11.926;2023-01-13T04:42:16;17.57;;;3.97;;
16813;SDS011;8524;57.650;11.926;2023-01-13T04:44:43;15.13;;;4.07;;
16813;SDS011;8524;57.650;11.926;2023-01-13T04:47:10;13.33;;;3.10;;
16813;SDS011;8524;57.650;11.926;2023-01-13T04:49:37;14.73;;;4.00;;
16813;SDS011;8524;57.650;11.926;2023-01-13T04:52:04;16.17;;;3.57;;
16813;SDS011;8524;57.650;11.926;2023-01-13T04:54:33;16.87;;;4.33;;
16813;SDS011;8524;57.650;11.926;2023-01-13T04:57:00;17.70;;;3.53;;
16813;SDS011;8524;57.650;11.926;2023-01-13T04:59:27;16.87;;;3.70;;
16813;SDS011;8524;57.650;11.926;2023-01-13T05:01:54;13.87;;;3.83;;
16813;SDS011;8524;57.650;11.926;2023-01-13T05:04:21;12.37;;;2.90;;
16813;SDS011;8524;57.650;11.926;2023-01-13T05:06:48;12.93;;;3.40;;
16813;SDS011;8524;57.650;11.926;2023-01-13T05:09:15;10.87;;;3.80;;
16813;SDS011;8524;57.650;11.926;2023-01-13T05:11:44;13.90;;;3.10;;
16813;SDS011;8524;57.650;11.926;2023-01-13T05:14:29;16.87;;;3.53;;
16813;SDS011;8524;57.650;11.926;2023-01-13T05:17:15;13.03;;;3.80;;
16813;SDS011;8524;57.650;11.926;2023-01-13T05:19:45;10.77;;;3.13;;
16813;SDS011;8524;57.650;11.926;2023-01-13T05:22:12;13.97;;;3.40;;
16813;SDS011;8524;57.650;11.926;2023-01-13T05:24:57;16.90;;;3.70;;
16813;SDS011;8524;57.650;11.926;2023-01-13T05:27:43;15.57;;;3.80;;
16813;SDS011;8524;57.650;11.926;2023-01-13T05:30:10;15.13;;;4.20;;
16813;SDS011;8524;57.650;11.926;2023-01-13T05:32:37;14.27;;;3.83;;
16813;SDS011;8524;57.650;11.926;2023-01-13T05:35:05;21.27;;;4.50;;
16813;SDS011;8524;57.650;11.926;2023-01-13T05:37:32;15.03;;;3.97;;
16813;SDS011;8524;57.650;11.926;2023-01-13T05:40:00;15.77;;;3.90;;
16813;SDS011;8524;57.650;11.926;2023-01-13T05:42:46;21.07;;;4.80;;
16813;SDS011;8524;57.650;11.926;2023-01-13T05:45:30;18.67;;;4.80;;
16813;SDS011;8524;57.650;11.926;2023-01-13T05:47:58;18.63;;;4.87;;
16813;SDS011;8524;57.650;11.926;2023-01-13T05:50:24;17.83;;;4.67;;
16813;SDS011;8524;57.650;11.926;2023-01-13T05:52:51;17.00;;;4.70;;
16813;SDS011;8524;57.650;11.926;2023-01-13T05:55:18;18.47;;;5.13;;
16813;SDS011;8524;57.650;11.926;2023-01-13T05:57:47;17.10;;;4.33;;
16813;SDS011;8524;57.650;11.926;2023-01-13T06:00:14;26.07;;;5.80;;
16813;SDS011;8524;57.650;11.926;2023-01-13T06:02:42;19.27;;;4.43;;
16813;SDS011;8524;57.650;11.926;2023-01-13T06:05:09;19.50;;;4.57;;
16813;SDS011;8524;57.650;11.926;2023-01-13T06:07:36;18.67;;;4.97;;
16813;SDS011;8524;57.650;11.926;2023-01-13T06:10:03;19.87;;;4.37;;
16813;SDS011;8524;57.650;11.926;2023-01-13T06:12:31;19.67;;;3.70;;
16813;SDS011;8524;57.650;11.926;2023-01-13T06:14:59;20.43;;;4.97;;
16813;SDS011;8524;57.650;11.926;2023-01-13T06:17:27;20.40;;;5.50;;
16813;SDS011;8524;57.650;11.926;2023-01-13T06:19:54;23.40;;;5.13;;
16813;SDS011;8524;57.650;11.926;2023-01-13T06:22:22;19.63;;;4.47;;
16813;SDS011;8524;57.650;11.926;2023-01-13T06:24:52;16.60;;;4.90;;
16813;SDS011;8524;57.650;11.926;2023-01-13T06:27:19;20.50;;;4.43;;
16813;SDS011;8524;57.650;11.926;2023-01-13T06:29:47;15.10;;;4.17;;
16813;SDS011;8524;57.650;11.926;2023-01-13T06:32:16;14.30;;;4.10;;
16813;SDS011;8524;57.650;11.926;2023-01-13T06:34:48;17.90;;;4.07;;
16813;SDS011;8524;57.650;11.926;2023-01-13T06:37:19;12.27;;;4.07;;
16813;SDS011;8524;57.650;11.926;2023-01-13T06:39:49;14.30;;;3.57;;
16813;SDS011;8524;57.650;11.926;2023-01-13T06:42:20;18.83;;;4.30;;
16813;SDS011;8524;57.650;11.926;2023-01-13T06:45:05;19.23;;;4.17;;
16813;SDS011;8524;57.650;11.926;2023-01-13T06:47:34;16.47;;;4.17;;
16813;SDS011;8524;57.650;11.926;2023-01-13T06:50:02;13.20;;;3.53;;
16813;SDS011;8524;57.650;11.926;2023-01-13T06:52:29;14.73;;;4.70;;
16813;SDS011;8524;57.650;11.926;2023-01-13T06:54:56;16.73;;;4.03;;
16813;SDS011;8524;57.650;11.926;2023-01-13T06:57:23;16.80;;;4.03;;
16813;SDS011;8524;57.650;11.926;2023-01-13T06:59:50;19.03;;;4.93;;
16813;SDS011;8524;57.650;11.926;2023-01-13T07:02:18;15.83;;;4.07;;
16813;SDS011;8524;57.650;11.926;2023-01-13T07:04:46;19.67;;;4.40;;
16813;SDS011;8524;57.650;11.926;2023-01-13T07:07:13;15.07;;;4.33;;
16813;SDS011;8524;57.650;11.926;2023-01-13T07:09:40;19.30;;;4.33;;
16813;SDS011;8524;57.650;11.926;2023-01-13T07:12:07;17.03;;;4.37;;
16813;SDS011;8524;57.650;11.926;2023-01-13T07:14:34;18.50;;;4.20;;
16813;SDS011;8524;57.650;11.926;2023-01-13T07:17:18;15.83;;;4.73;;
16813;SDS011;8524;57.650;11.926;2023-01-13T07:19:50;18.30;;;4.67;;
16813;SDS011;8524;57.650;11.926;2023-01-13T07:22:17;18.20;;;4.77;;
16813;SDS011;8524;57.650;11.926;2023-01-13T07:24:44;21.33;;;4.70;;
16813;SDS011;8524;57.650;11.926;2023-01-13T07:27:11;16.10;;;4.23;;
16813;SDS011;8524;57.650;11.926;2023-01-13T07:29:38;18.33;;;4.63;;
16813;SDS011;8524;57.650;11.926;2023-01-13T07:32:06;21.33;;;4.97;;
16813;SDS011;8524;57.650;11.926;2023-01-13T07:34:33;17.43;;;4.50;;
16813;SDS011;8524;57.650;11.926;2023-01-13T07:37:01;21.30;;;4.80;;
16813;SDS011;8524;57.650;11.926;2023-01-13T07:39:28;17.57;;;4.13;;
16813;SDS011;8524;57.650;11.926;2023-01-13T07:41:55;20.40;;;4.73;;
16813;SDS011;8524;57.650;11.926;2023-01-13T07:44:40;22.23;;;4.97;;
16813;SDS011;8524;57.650;11.926;2023-01-13T07:47:07;16.13;;;4.53;;
16813;SDS011;8524;57.650;11.926;2023-01-13T07:49:35;17.23;;;4.80;;
16813;SDS011;8524;57.650;11.926;2023-01-13T07:52:04;17.10;;;4.23;;
16813;SDS011;8524;57.650;11.926;2023-01-13T07:54:31;19.83;;;4.57;;
16813;SDS011;8524;57.650;11.926;2023-01-13T07:56:58;16.40;;;4.43;;
16813;SDS011;8524;57.650;11.926;2023-01-13T07:59:25;18.43;;;4.13;;
16813;SDS011;8524;57.650;11.926;2023-01-13T08:01:52;17.13;;;4.20;;
16813;SDS011;8524;57.650;11.926;2023-01-13T08:04:19;23.23;;;4.70;;
16813;SDS011;8524;57.650;11.926;2023-01-13T08:06:46;20.00;;;4.73;;
16813;SDS011;8524;57.650;11.926;2023-01-13T08:09:15;22.00;;;5.20;;
16813;SDS011;8524;57.650;11.926;2023-01-13T08:11:42;23.63;;;6.32;;
16813;SDS011;8524;57.650;11.926;2023-01-13T08:14:08;23.30;;;5.63;;
16813;SDS011;8524;57.650;11.926;2023-01-13T08:16:35;21.70;;;6.07;;
16813;SDS011;8524;57.650;11.926;2023-01-13T08:19:03;19.67;;;5.37;;
16813;SDS011;8524;57.650;11.926;2023-01-13T08:21:29;27.10;;;6.70;;
16813;SDS011;8524;57.650;11.926;2023-01-13T08:23:57;29.43;;;5.70;;
16813;SDS011;8524;57.650;11.926;2023-01-13T08:26:25;28.97;;;6.63;;
16813;SDS011;8524;57.650;11.926;2023-01-13T08:28:52;24.77;;;6.70;;
16813;SDS011;8524;57.650;11.926;2023-01-13T08:31:19;28.70;;;5.93;;
16813;SDS011;8524;57.650;11.926;2023-01-13T08:33:46;25.93;;;7.43;;
16813;SDS011;8524;57.650;11.926;2023-01-13T08:36:13;27.53;;;6.50;;
16813;SDS011;8524;57.650;11.926;2023-01-13T08:38:42;27.20;;;6.90;;
16813;SDS011;8524;57.650;11.926;2023-01-13T08:41:09;25.47;;;7.33;;
16813;SDS011;8524;57.650;11.926;2023-01-13T08:43:39;27.17;;;7.13;;
16813;SDS011;8524;57.650;11.926;2023-01-13T08:46:06;30.97;;;6.13;;
16813;SDS011;8524;57.650;11.926;2023-01-13T08:48:33;35.07;;;7.03;;
16813;SDS011;8524;57.650;11.926;2023-01-13T08:51:01;27.17;;;6.80;;
16813;SDS011;8524;57.650;11.926;2023-01-13T08:53:29;31.57;;;7.57;;
16813;SDS011;8524;57.650;11.926;2023-01-13T08:55:57;27.83;;;7.73;;
16813;SDS011;8524;57.650;11.926;2023-01-13T08:58:24;26.70;;;7.23;;
16813;SDS011;8524;57.650;11.926;2023-01-13T09:00:52;25.53;;;6.97;;
16813;SDS011;8524;57.650;11.926;2023-01-13T09:03:20;31.23;;;7.87;;
16813;SDS011;8524;57.650;11.926;2023-01-13T09:05:47;32.53;;;7.20;;
16813;SDS011;8524;57.650;11.926;2023-01-13T09:08:14;33.90;;;7.47;;
16813;SDS011;8524;57.650;11.926;2023-01-13T09:10:41;28.67;;;7.63;;
16813;SDS011;8524;57.650;11.926;2023-01-13T09:13:09;30.33;;;7.23;;
16813;SDS011;8524;57.650;11.926;2023-01-13T09:15:38;33.73;;;7.80;;
16813;SDS011;8524;57.650;11.926;2023-01-13T09:18:07;33.80;;;7.60;;
16813;SDS011;8524;57.650;11.926;2023-01-13T09:20:35;29.33;;;7.67;;
16813;SDS011;8524;57.650;11.926;2023-01-13T09:23:02;31.53;;;7.40;;
16813;SDS011;8524;57.650;11.926;2023-01-13T09:25:30;29.47;;;6.43;;
16813;SDS011;8524;57.650;11.926;2023-01-13T09:27:59;31.47;;;7.00;;
16813;SDS011;8524;57.650;11.926;2023-01-13T09:30:27;29.23;;;6.87;;
16813;SDS011;8524;57.650;11.926;2023-01-13T09:32:56;22.97;;;6.00;;
16813;SDS011;8524;57.650;11.926;2023-01-13T09:35:38;32.30;;;8.00;;
16813;SDS011;8524;57.650;11.926;2023-01-13T09:38:05;28.23;;;6.40;;
16813;SDS011;8524;57.650;11.926;2023-01-13T09:40:32;28.93;;;6.73;;
16813;SDS011;8524;57.650;11.926;2023-01-13T09:43:05;27.33;;;6.20;;
16813;SDS011;8524;57.650;11.926;2023-01-13T09:46:02;24.50;;;6.23;;
16813;SDS011;8524;57.650;11.926;2023-01-13T09:48:53;27.27;;;6.50;;
16813;SDS011;8524;57.650;11.926;2023-01-13T09:51:26;25.47;;;6.00;;
16813;SDS011;8524;57.650;11.926;2023-01-13T09:53:58;26.77;;;6.60;;
16813;SDS011;8524;57.650;11.926;2023-01-13T09:56:28;31.90;;;7.13;;
16813;SDS011;8524;57.650;11.926;2023-01-13T09:58:55;23.93;;;6.33;;
16813;SDS011;8524;57.650;11.926;2023-01-13T10:01:23;26.80;;;6.33;;
16813;SDS011;8524;57.650;11.926;2023-01-13T10:04:01;24.83;;;5.77;;
16813;SDS011;8524;57.650;11.926;2023-01-13T10:06:31;28.77;;;6.82;;
16813;SDS011;8524;57.650;11.926;2023-01-13T10:09:03;20.90;;;5.47;;
16813;SDS011;8524;57.650;11.926;2023-01-13T10:11:32;24.47;;;5.90;;
16813;SDS011;8524;57.650;11.926;2023-01-13T10:14:23;21.10;;;5.23;;
16813;SDS011;8524;57.650;11.926;2023-01-13T10:16:56;25.10;;;5.63;;
16813;SDS011;8524;57.650;11.926;2023-01-13T10:19:32;22.60;;;6.10;;
16813;SDS011;8524;57.650;11.926;2023-01-13T10:22:11;24.03;;;5.43;;
16813;SDS011;8524;57.650;11.926;2023-01-13T10:24:51;25.87;;;5.60;;
16813;SDS011;8524;57.650;11.926;2023-01-13T10:27:29;21.73;;;5.23;;
16813;SDS011;8524;57.650;11.926;2023-01-13T10:30:09;25.80;;;6.70;;
16813;SDS011;8524;57.650;11.926;2023-01-13T10:32:39;25.77;;;5.83;;
16813;SDS011;8524;57.650;11.926;2023-01-13T10:35:09;25.93;;;5.93;;
16813;SDS011;8524;57.650;11.926;2023-01-13T10:37:37;20.63;;;5.40;;
16813;SDS011;8524;57.650;11.926;2023-01-13T10:40:10;19.87;;;5.70;;
16813;SDS011;8524;57.650;11.926;2023-01-13T10:42:43;25.30;;;5.87;;
16813;SDS011;8524;57.650;11.926;2023-01-13T10:45:14;24.40;;;5.37;;
16813;SDS011;8524;57.650;11.926;2023-01-13T10:48:02;27.43;;;5.93;;
16813;SDS011;8524;57.650;11.926;2023-01-13T10:50:33;21.17;;;5.30;;
16813;SDS011;8524;57.650;11.926;2023-01-13T10:53:08;23.53;;;4.83;;
16813;SDS011;8524;57.650;11.926;2023-01-13T10:55:42;29.80;;;6.67;;
16813;SDS011;8524;57.650;11.926;2023-01-13T10:58:13;23.80;;;5.63;;
16813;SDS011;8524;57.650;11.926;2023-01-13T11:00:43;22.97;;;5.57;;
16813;SDS011;8524;57.650;11.926;2023-01-13T11:03:15;20.23;;;4.90;;
16813;SDS011;8524;57.650;11.926;2023-01-13T11:05:47;28.47;;;5.87;;
16813;SDS011;8524;57.650;11.926;2023-01-13T11:08:19;22.90;;;5.93;;
16813;SDS011;8524;57.650;11.926;2023-01-13T11:10:48;19.27;;;5.83;;
16813;SDS011;8524;57.650;11.926;2023-01-13T11:13:17;22.20;;;5.83;;
16813;SDS011;8524;57.650;11.926;2023-01-13T11:15:51;21.77;;;5.23;;
16813;SDS011;8524;57.650;11.926;2023-01-13T11:18:24;23.83;;;6.30;;
16813;SDS011;8524;57.650;11.926;2023-01-13T11:20:56;23.93;;;5.67;;
16813;SDS011;8524;57.650;11.926;2023-01-13T11:23:30;18.93;;;5.63;;
16813;SDS011;8524;57.650;11.926;2023-01-13T11:26:01;21.57;;;5.30;;
16813;SDS011;8524;57.650;11.926;2023-01-13T11:28:38;22.07;;;5.30;;
16813;SDS011;8524;57.650;11.926;2023-01-13T11:31:13;18.10;;;4.93;;
16813;SDS011;8524;57.650;11.926;2023-01-13T11:33:47;22.77;;;5.43;;
16813;SDS011;8524;57.650;11.926;2023-01-13T11:36:22;26.07;;;5.30;;
16813;SDS011;8524;57.650;11.926;2023-01-13T11:38:55;19.17;;;5.40;;
16813;SDS011;8524;57.650;11.926;2023-01-13T11:41:36;22.07;;;4.97;;
16813;SDS011;8524;57.650;11.926;2023-01-13T11:44:16;23.57;;;5.37;;
16813;SDS011;8524;57.650;11.926;2023-01-13T11:46:47;18.50;;;5.10;;
16813;SDS011;8524;57.650;11.926;2023-01-13T11:49:19;21.00;;;4.70;;
16813;SDS011;8524;57.650;11.926;2023-01-13T11:51:49;20.60;;;5.03;;
16813;SDS011;8524;57.650;11.926;2023-01-13T11:57:48;19.23;;;5.27;;
16813;SDS011;8524;57.650;11.926;2023-01-13T12:00:39;19.27;;;4.83;;
16813;SDS011;8524;57.650;11.926;2023-01-13T12:03:26;24.08;;;5.88;;
16813;SDS011;8524;57.650;11.926;2023-01-13T12:09:08;18.10;;;4.83;;
16813;SDS011;8524;57.650;11.926;2023-01-13T12:12:00;19.00;;;5.37;;
16813;SDS011;8524;57.650;11.926;2023-01-13T12:14:55;18.30;;;4.40;;
16813;SDS011;8524;57.650;11.926;2023-01-13T12:17:33;19.40;;;4.23;;
16813;SDS011;8524;57.650;11.926;2023-01-13T12:20:13;22.87;;;6.10;;
16813;SDS011;8524;57.650;11.926;2023-01-13T12:22:51;16.00;;;4.87;;
16813;SDS011;8524;57.650;11.926;2023-01-13T12:25:23;26.33;;;5.07;;
16813;SDS011;8524;57.650;11.926;2023-01-13T12:27:57;19.02;;;5.82;;
16813;SDS011;8524;57.650;11.926;2023-01-13T12:30:30;22.37;;;4.70;;
16813;SDS011;8524;57.650;11.926;2023-01-13T12:33:08;18.20;;;4.73;;
16813;SDS011;8524;57.650;11.926;2023-01-13T12:35:46;15.27;;;4.27;;
16813;SDS011;8524;57.650;11.926;2023-01-13T12:38:22;16.27;;;4.30;;
16813;SDS011;8524;57.650;11.926;2023-01-13T12:40:59;15.77;;;3.93;;
16813;SDS011;8524;57.650;11.926;2023-01-13T12:43:36;19.97;;;4.13;;
16813;SDS011;8524;57.650;11.926;2023-01-13T12:46:35;18.07;;;3.93;;
16813;SDS011;8524;57.650;11.926;2023-01-13T12:49:17;18.50;;;3.90;;
16813;SDS011;8524;57.650;11.926;2023-01-13T12:52:00;16.17;;;4.40;;
16813;SDS011;8524;57.650;11.926;2023-01-13T12:55:00;16.17;;;3.93;;
16813;SDS011;8524;57.650;11.926;2023-01-13T12:57:58;12.47;;;4.00;;
16813;SDS011;8524;57.650;11.926;2023-01-13T13:00:59;15.20;;;3.90;;
16813;SDS011;8524;57.650;11.926;2023-01-13T13:03:36;14.77;;;4.07;;
16813;SDS011;8524;57.650;11.926;2023-01-13T13:06:08;11.77;;;3.97;;
16813;SDS011;8524;57.650;11.926;2023-01-13T13:08:42;14.40;;;3.77;;
16813;SDS011;8524;57.650;11.926;2023-01-13T13:11:20;11.50;;;3.07;;
16813;SDS011;8524;57.650;11.926;2023-01-13T13:14:18;11.37;;;2.87;;
16813;SDS011;8524;57.650;11.926;2023-01-13T13:17:42;17.17;;;4.20;;
16813;SDS011;8524;57.650;11.926;2023-01-13T13:26:16;12.90;;;3.50;;
16813;SDS011;8524;57.650;11.926;2023-01-13T13:28:56;11.07;;;3.43;;
16813;SDS011;8524;57.650;11.926;2023-01-13T13:34:46;14.00;;;3.40;;
16813;SDS011;8524;57.650;11.926;2023-01-13T13:40:27;13.23;;;3.53;;
16813;SDS011;8524;57.650;11.926;2023-01-13T13:43:14;16.13;;;4.47;;
16813;SDS011;8524;57.650;11.926;2023-01-13T13:45:59;17.57;;;4.10;;
16813;SDS011;8524;57.650;11.926;2023-01-13T13:48:53;13.63;;;3.93;;
16813;SDS011;8524;57.650;11.926;2023-01-13T13:51:23;22.87;;;4.73;;
16813;SDS011;8524;57.650;11.926;2023-01-13T13:53:53;18.63;;;5.03;;
16813;SDS011;8524;57.650;11.926;2023-01-13T13:56:23;19.43;;;5.10;;
16813;SDS011;8524;57.650;11.926;2023-01-13T13:58:53;19.67;;;4.93;;
16813;SDS011;8524;57.650;11.926;2023-01-13T14:01:21;25.47;;;5.67;;
16813;SDS011;8524;57.650;11.926;2023-01-13T14:04:05;21.90;;;4.83;;
16813;SDS011;8524;57.650;11.926;2023-01-13T14:06:49;21.67;;;6.15;;
16813;SDS011;8524;57.650;11.926;2023-01-13T14:09:18;21.57;;;5.00;;
16813;SDS011;8524;57.650;11.926;2023-01-13T14:11:56;19.00;;;5.40;;
16813;SDS011;8524;57.650;11.926;2023-01-13T14:14:25;16.73;;;4.70;;
16813;SDS011;8524;57.650;11.926;2023-01-13T14:16:53;21.93;;;4.67;;
16813;SDS011;8524;57.650;11.926;2023-01-13T14:19:23;15.60;;;4.47;;
16813;SDS011;8524;57.650;11.926;2023-01-13T14:21:58;17.37;;;4.60;;
16813;SDS011;8524;57.650;11.926;2023-01-13T14:24:27;19.77;;;4.57;;
16813;SDS011;8524;57.650;11.926;2023-01-13T14:27:06;20.30;;;4.60;;
16813;SDS011;8524;57.650;11.926;2023-01-13T14:29:34;18.77;;;4.73;;
16813;SDS011;8524;57.650;11.926;2023-01-13T14:32:02;19.43;;;4.40;;
16813;SDS011;8524;57.650;11.926;2023-01-13T14:34:31;19.90;;;4.17;;
16813;SDS011;8524;57.650;11.926;2023-01-13T14:37:00;18.40;;;3.73;;
16813;SDS011;8524;57.650;11.926;2023-01-13T14:39:35;18.40;;;5.33;;
16813;SDS011;8524;57.650;11.926;2023-01-13T14:42:10;17.40;;;4.03;;
16813;SDS011;8524;57.650;11.926;2023-01-13T14:44:38;18.07;;;4.47;;
16813;SDS011;8524;57.650;11.926;2023-01-13T14:47:17;15.53;;;4.40;;
16813;SDS011;8524;57.650;11.926;2023-01-13T14:49:51;16.50;;;4.87;;
16813;SDS011;8524;57.650;11.926;2023-01-13T14:52:24;18.03;;;4.10;;
16813;SDS011;8524;57.650;11.926;2023-01-13T14:54:53;13.73;;;3.67;;
16813;SDS011;8524;57.650;11.926;2023-01-13T14:57:38;18.07;;;4.33;;
16813;SDS011;8524;57.650;11.926;2023-01-13T15:00:16;17.70;;;4.30;;
16813;SDS011;8524;57.650;11.926;2023-01-13T15:02:47;11.23;;;3.83;;
16813;SDS011;8524;57.650;11.926;2023-01-13T15:05:35;18.63;;;3.73;;
16813;SDS011;8524;57.650;11.926;2023-01-13T15:08:28;15.53;;;3.60;;
16813;SDS011;8524;57.650;11.926;2023-01-13T15:11:03;14.20;;;3.10;;
16813;SDS011;8524;57.650;11.926;2023-01-13T15:13:37;10.33;;;2.83;;
16813;SDS011;8524;57.650;11.926;2023-01-13T15:16:12;13.60;;;3.43;;
16813;SDS011;8524;57.650;11.926;2023-01-13T15:18:41;14.20;;;3.30;;
16813;SDS011;8524;57.650;11.926;2023-01-13T15:21:08;14.77;;;3.40;;
16813;SDS011;8524;57.650;11.926;2023-01-13T15:23:37;13.27;;;3.20;;
16813;SDS011;8524;57.650;11.926;2023-01-13T15:26:11;11.73;;;3.63;;
16813;SDS011;8524;57.650;11.926;2023-01-13T15:28:45;12.07;;;3.53;;
16813;SDS011;8524;57.650;11.926;2023-01-13T15:31:12;13.97;;;3.50;;
16813;SDS011;8524;57.650;11.926;2023-01-13T15:33:40;11.13;;;3.30;;